Portada
METAR-TAF:

METAR-TAF

Aeroports :

Midway, Estats Units d'Amèrica

latitud: 28-13N, longitud: 177-22W, altitud: 4 m

METAR: manca

Hora: 00:31 (10:31 UTC)

Pronòstic

L'informe es va fer fa 5 hores i 11 minuts, a les 05:20 UTC
Pronòstic vàlid del 02 a les 06 UTC al 03 a les 06 UTC
Vent 9 kt del Est/Nord-Est
Visibilitat: 10 km
Núvols disperses a una alçada de 2000 ft
Cel ennuvolat a una alçada de 4000 ft
A partir de les 02 a les 2100 UTC
Vent 12 kt del Nord-Est
Visibilitat: 10 km
Núvols disperses a una alçada de 2000 ft
Cel ennuvolat a una alçada de 3500 ft

TAF: PMDY 020520Z 0206/0306 06009KT P6SM SCT020 BKN040 FM022100 04012KT P6SM SCT020 BKN035

Observacions i pronòstics meteorològics de més de 4000 aeroports (METAR i TAF).

Les estacions disponibles són els punts grocs i vermells al mapa.

Posi el ratolí al punt desitjat per veure el nom de l'estació.

Feu clic per veure les observacions i els pronòstics meteorològics.

Per canviar el mapa: feu clic els botons verds amb una creu de color negre per apropar; al botó verd amb un guió per allunyar la imatge; o en les fletxes verdes per a mapes adjacents.


METAR-TAF: